Terminal Aerodrome Forecast
Issued by NWS Medford, OR

Home | Current Version | Previous Version | Text Only | Print | Product List | Glossary On
Versions: 1 2 3 4 5 6 7 8 9 10 11 12 13 14 15 16
000
FTUS46 KMFR 201100 RRA
TAFMFR
TAF
KMFR 201143Z 2012/2112 VRB03KT P6SM -RA SCT015 BKN035 OVC060
      TEMPO 2012/2015 4SM -RA BR BKN015 BKN035 OVC060
     FM202000 29007KT P6SM -SHRA SCT035 BKN060
     FM210300 32003KT P6SM -SHRA BKN050 BKN100=

USA.gov is the U.S. government's official web portal to all federal, state and local government web resources and services.